createdAt,value
2017-07-20T00:00:22.503Z,22.37
2017-07-20T00:01:18.796Z,22.38
2017-07-20T00:02:15.094Z,22.38
2017-07-20T00:03:12.487Z,22.37
2017-07-20T00:04:08.782Z,22.37
2017-07-20T00:05:05.042Z,22.39
2017-07-20T00:06:01.306Z,22.37
2017-07-20T00:06:57.558Z,22.38
2017-07-20T00:07:53.818Z,22.38
2017-07-20T00:08:50.402Z,22.39
2017-07-20T00:09:46.667Z,22.39
2017-07-20T00:10:43.370Z,22.39
2017-07-20T00:11:40.530Z,22.39
2017-07-20T00:12:36.798Z,22.39
2017-07-20T00:13:33.074Z,22.40
2017-07-20T00:14:29.347Z,22.40
2017-07-20T00:15:25.634Z,22.40
2017-07-20T00:16:21.913Z,22.40
2017-07-20T00:17:18.228Z,22.40
2017-07-20T00:18:14.505Z,22.41
2017-07-20T00:19:10.774Z,22.40
2017-07-20T00:20:07.045Z,22.41
2017-07-20T00:21:03.291Z,22.40
2017-07-20T00:21:59.548Z,22.41
2017-07-20T00:22:55.805Z,22.41
2017-07-20T00:23:52.114Z,22.42
2017-07-20T00:24:48.402Z,22.43
2017-07-20T00:25:44.688Z,22.43
2017-07-20T00:26:40.967Z,22.43
2017-07-20T00:27:37.247Z,22.43
2017-07-20T00:28:33.502Z,22.45
2017-07-20T00:29:29.754Z,22.44
2017-07-20T00:30:26.014Z,22.44
2017-07-20T00:31:22.327Z,22.44
2017-07-20T00:32:18.598Z,22.44
2017-07-20T00:33:14.878Z,22.44
2017-07-20T00:34:11.191Z,22.44
2017-07-20T00:35:08.174Z,22.44
2017-07-20T00:36:04.450Z,22.44
2017-07-20T00:37:00.718Z,22.44
2017-07-20T00:37:57.023Z,22.44
2017-07-20T00:38:53.283Z,22.44
2017-07-20T00:39:49.558Z,22.44
2017-07-20T00:40:45.806Z,22.45
2017-07-20T00:41:42.066Z,22.45
2017-07-20T00:42:38.323Z,22.45
2017-07-20T00:43:34.562Z,22.44
2017-07-20T00:44:30.802Z,22.44
2017-07-20T00:45:27.047Z,22.43
2017-07-20T00:46:23.383Z,22.43
2017-07-20T00:47:19.662Z,22.43
2017-07-20T00:48:15.995Z,22.42
2017-07-20T00:49:12.267Z,22.42
2017-07-20T00:50:08.571Z,22.42
2017-07-20T00:51:04.867Z,22.40
2017-07-20T00:52:01.126Z,22.40
2017-07-20T00:52:57.375Z,22.40
2017-07-20T00:53:53.617Z,22.40
2017-07-20T00:54:49.878Z,22.38
2017-07-20T00:55:46.111Z,22.39
2017-07-20T00:56:42.422Z,22.39
2017-07-20T00:57:38.666Z,22.39
2017-07-20T00:58:34.906Z,22.39
2017-07-20T00:59:31.152Z,22.38
2017-07-20T01:00:27.406Z,22.38
2017-07-20T01:01:23.637Z,22.37
2017-07-20T01:02:19.938Z,22.37
2017-07-20T01:03:16.198Z,22.36
2017-07-20T01:04:12.468Z,22.36
2017-07-20T01:05:09.139Z,22.33
2017-07-20T01:06:05.415Z,22.33
2017-07-20T01:07:01.686Z,22.32
2017-07-20T01:07:57.942Z,22.32
2017-07-20T01:08:54.179Z,22.29
2017-07-20T01:09:50.415Z,22.27
2017-07-20T01:10:46.662Z,22.26
2017-07-20T01:11:42.914Z,22.25
2017-07-20T01:12:39.335Z,22.21
2017-07-20T01:13:35.618Z,22.21
2017-07-20T01:14:31.922Z,22.20
2017-07-20T01:15:28.400Z,22.18
2017-07-20T01:16:24.727Z,22.16
2017-07-20T01:17:21.040Z,22.15
2017-07-20T01:18:17.374Z,22.13
2017-07-20T01:19:13.790Z,22.12
2017-07-20T01:20:10.151Z,22.11
2017-07-20T01:21:06.439Z,22.10
2017-07-20T01:22:02.726Z,22.09
2017-07-20T01:22:58.990Z,22.09
2017-07-20T01:23:55.226Z,22.08
2017-07-20T01:24:51.482Z,22.08
2017-07-20T01:25:47.723Z,22.09
2017-07-20T01:26:43.974Z,22.07
2017-07-20T01:27:40.351Z,22.08
2017-07-20T01:28:36.682Z,22.08
2017-07-20T01:29:32.914Z,22.08
2017-07-20T01:30:29.154Z,22.08
2017-07-20T01:31:25.411Z,22.08
2017-07-20T01:32:21.690Z,22.08
2017-07-20T01:33:17.949Z,22.08
2017-07-20T01:34:14.199Z,22.07
2017-07-20T01:35:10.470Z,22.07
2017-07-20T01:36:06.767Z,22.08
2017-07-20T01:37:03.043Z,22.07
2017-07-20T01:37:59.350Z,22.08
2017-07-20T01:38:55.655Z,22.07
2017-07-20T01:39:51.967Z,22.08
2017-07-20T01:40:48.223Z,22.08
2017-07-20T01:41:44.487Z,22.09
2017-07-20T01:42:40.743Z,22.07
2017-07-20T01:43:37.075Z,22.08
2017-07-20T01:44:33.407Z,22.09
2017-07-20T01:45:29.739Z,22.09
2017-07-20T01:46:26.067Z,22.09
2017-07-20T01:47:22.426Z,22.10
2017-07-20T01:48:18.719Z,22.09
2017-07-20T01:49:15.007Z,22.09
2017-07-20T01:50:11.246Z,22.10
2017-07-20T01:51:07.498Z,22.09
2017-07-20T01:52:03.755Z,22.10
2017-07-20T01:53:00.018Z,22.09
2017-07-20T01:53:56.383Z,22.10
2017-07-20T01:54:52.744Z,22.10
2017-07-20T01:55:49.018Z,22.10
2017-07-20T01:56:45.290Z,22.09
2017-07-20T01:57:41.539Z,22.09
2017-07-20T01:58:37.778Z,22.10
2017-07-20T01:59:34.052Z,22.10
2017-07-20T02:00:30.299Z,22.09
2017-07-20T02:01:26.551Z,22.09
2017-07-20T02:02:24.227Z,22.09
2017-07-20T02:03:20.647Z,22.07
2017-07-20T02:04:16.942Z,22.07
2017-07-20T02:05:13.239Z,22.09
2017-07-20T02:06:09.526Z,22.07
2017-07-20T02:07:05.779Z,22.07
2017-07-20T02:08:02.074Z,22.07
2017-07-20T02:08:58.307Z,22.07
2017-07-20T02:09:54.562Z,22.06
2017-07-20T02:10:50.814Z,22.06
2017-07-20T02:11:47.072Z,22.06
2017-07-20T02:12:43.322Z,22.06
2017-07-20T02:13:39.573Z,22.07
2017-07-20T02:14:35.883Z,22.07
2017-07-20T02:15:32.137Z,22.07
2017-07-20T02:16:28.398Z,22.05
2017-07-20T02:17:24.650Z,22.05
2017-07-20T02:18:21.212Z,22.04
2017-07-20T02:19:17.572Z,22.04
2017-07-20T02:20:13.852Z,22.04
2017-07-20T02:21:10.175Z,22.04
2017-07-20T02:22:06.550Z,22.02
2017-07-20T02:23:02.971Z,22.02
2017-07-20T02:23:59.383Z,22.02
2017-07-20T02:24:55.723Z,22.01
2017-07-20T02:25:52.014Z,22.01
2017-07-20T02:26:48.314Z,22.00
2017-07-20T02:27:45.747Z,22.00
2017-07-20T02:28:42.355Z,21.99
2017-07-20T02:29:38.831Z,21.98
2017-07-20T02:30:36.116Z,21.96
2017-07-20T02:31:32.727Z,21.96
2017-07-20T02:32:29.059Z,21.93
2017-07-20T02:33:25.422Z,21.93
2017-07-20T02:34:21.742Z,21.92
2017-07-20T02:35:18.074Z,21.90
2017-07-20T02:36:16.579Z,21.89
2017-07-20T02:37:13.003Z,21.89
2017-07-20T02:38:09.630Z,21.86
2017-07-20T02:39:05.971Z,21.85
2017-07-20T02:40:02.283Z,21.85
2017-07-20T02:40:58.629Z,21.83
2017-07-20T02:41:55.126Z,21.83
2017-07-20T02:42:52.813Z,21.83
2017-07-20T02:43:53.743Z,21.81
2017-07-20T02:44:51.479Z,21.81
2017-07-20T02:45:47.951Z,21.81
2017-07-20T02:46:44.419Z,21.80
2017-07-20T02:47:43.851Z,21.80
2017-07-20T02:48:40.231Z,21.79
2017-07-20T02:49:37.528Z,21.79
2017-07-20T02:50:33.975Z,21.79
2017-07-20T02:51:30.295Z,21.78
2017-07-20T02:52:26.627Z,21.79
2017-07-20T02:53:22.946Z,21.77
2017-07-20T02:54:19.312Z,21.76
2017-07-20T02:55:15.720Z,21.75
2017-07-20T02:56:12.042Z,21.75
2017-07-20T02:57:08.414Z,21.75
2017-07-20T02:58:05.674Z,21.75
2017-07-20T02:59:02.246Z,21.74
2017-07-20T02:59:58.571Z,21.73
2017-07-20T03:00:54.893Z,21.73
2017-07-20T03:01:51.168Z,21.72
2017-07-20T03:02:47.515Z,21.71
2017-07-20T03:03:44.621Z,21.71
2017-07-20T03:04:41.027Z,21.69
2017-07-20T03:05:37.345Z,21.68
2017-07-20T03:06:33.659Z,21.68
2017-07-20T03:07:30.239Z,21.67
2017-07-20T03:08:27.445Z,21.67
2017-07-20T03:09:23.844Z,21.67
2017-07-20T03:10:20.349Z,21.67
2017-07-20T03:11:16.744Z,21.65
2017-07-20T03:12:13.987Z,21.65
2017-07-20T03:13:10.339Z,21.64
2017-07-20T03:14:06.648Z,21.65
2017-07-20T03:15:02.986Z,21.64
2017-07-20T03:15:59.355Z,21.63
2017-07-20T03:16:55.663Z,21.62
2017-07-20T03:17:51.947Z,21.62
2017-07-20T03:18:49.234Z,21.60
2017-07-20T03:19:45.616Z,21.61
2017-07-20T03:20:42.057Z,21.60
2017-07-20T03:21:38.496Z,21.60
2017-07-20T03:22:34.899Z,21.60
2017-07-20T03:23:31.189Z,21.58
2017-07-20T03:24:29.360Z,21.57
2017-07-20T03:25:26.575Z,21.57
2017-07-20T03:26:22.959Z,21.55
2017-07-20T03:27:19.320Z,21.56
2017-07-20T03:28:15.650Z,21.56
2017-07-20T03:29:11.930Z,21.55
2017-07-20T03:30:09.227Z,21.54
2017-07-20T03:31:05.640Z,21.53
2017-07-20T03:32:02.056Z,21.54
2017-07-20T03:32:58.445Z,21.52
2017-07-20T03:33:54.775Z,21.51
2017-07-20T03:34:51.072Z,21.51
2017-07-20T03:35:47.391Z,21.49
2017-07-20T03:36:43.712Z,21.50
2017-07-20T03:37:40.059Z,21.49
2017-07-20T03:38:36.359Z,21.49
2017-07-20T03:39:32.656Z,21.48
2017-07-20T03:40:28.958Z,21.47
2017-07-20T03:41:26.023Z,21.47
2017-07-20T03:42:22.354Z,21.46
2017-07-20T03:43:18.694Z,21.47
2017-07-20T03:44:15.079Z,21.46
2017-07-20T03:45:11.483Z,21.47
2017-07-20T03:46:07.800Z,21.46
2017-07-20T03:47:04.119Z,21.45
2017-07-20T03:48:00.463Z,21.45
2017-07-20T03:48:56.739Z,21.45
2017-07-20T03:49:53.019Z,21.45
2017-07-20T03:50:49.299Z,21.45
2017-07-20T03:51:45.595Z,21.45
2017-07-20T03:52:42.935Z,21.44
2017-07-20T03:53:40.276Z,21.45
2017-07-20T03:54:36.619Z,21.43
2017-07-20T03:55:33.682Z,21.43
2017-07-20T03:56:30.023Z,21.44
2017-07-20T03:57:26.347Z,21.44
2017-07-20T03:58:22.667Z,21.42
2017-07-20T03:59:19.048Z,21.42
2017-07-20T04:00:15.719Z,21.42
2017-07-20T04:01:12.079Z,21.41
2017-07-20T04:02:08.405Z,21.53
2017-07-20T04:03:05.655Z,21.79
2017-07-20T04:04:02.127Z,22.06
2017-07-20T04:04:58.487Z,22.26
2017-07-20T04:05:54.795Z,22.40
2017-07-20T04:06:51.080Z,22.54
2017-07-20T04:07:47.420Z,22.64
2017-07-20T04:08:43.780Z,22.73
2017-07-20T04:09:40.106Z,22.82
2017-07-20T04:10:36.382Z,22.89
2017-07-20T04:11:32.682Z,22.96
2017-07-20T04:12:29.010Z,23.01
2017-07-20T04:13:25.305Z,23.06
2017-07-20T04:14:21.619Z,23.10
2017-07-20T04:15:17.944Z,23.13
2017-07-20T04:16:14.266Z,23.18
2017-07-20T04:17:10.584Z,23.21
2017-07-20T04:18:07.723Z,23.24
2017-07-20T04:19:04.035Z,23.28
2017-07-20T04:20:00.388Z,23.31
2017-07-20T04:20:56.719Z,23.32
2017-07-20T04:21:53.066Z,23.35
2017-07-20T04:22:49.376Z,23.37
2017-07-20T04:23:45.641Z,23.39
2017-07-20T04:24:43.887Z,23.41
2017-07-20T04:25:40.166Z,23.42
2017-07-20T04:26:36.527Z,23.42
2017-07-20T04:27:33.647Z,23.44
2017-07-20T04:28:29.946Z,23.44
2017-07-20T04:29:26.266Z,23.46
2017-07-20T04:30:22.587Z,23.47
2017-07-20T04:31:18.875Z,23.48
2017-07-20T04:32:15.141Z,23.51
2017-07-20T04:33:11.427Z,23.51
2017-07-20T04:34:07.750Z,23.52
2017-07-20T04:35:04.031Z,23.52
2017-07-20T04:36:00.310Z,23.53
2017-07-20T04:36:57.364Z,23.53
2017-07-20T04:37:53.662Z,23.55
2017-07-20T04:38:54.826Z,23.55
2017-07-20T04:39:51.075Z,23.55
2017-07-20T04:40:47.327Z,23.56
2017-07-20T04:41:44.610Z,23.56
2017-07-20T04:42:40.926Z,23.56
2017-07-20T04:43:37.266Z,23.56
2017-07-20T04:44:33.538Z,23.57
2017-07-20T04:45:30.683Z,23.57
2017-07-20T04:46:26.935Z,23.56
2017-07-20T04:47:23.226Z,23.57
2017-07-20T04:48:20.327Z,23.56
2017-07-20T04:49:16.579Z,23.56
2017-07-20T04:50:12.835Z,23.58
2017-07-20T04:51:09.090Z,23.57
2017-07-20T04:52:05.384Z,23.58
2017-07-20T04:53:01.637Z,23.57
2017-07-20T04:53:57.889Z,23.58
2017-07-20T04:54:54.258Z,23.57
2017-07-20T04:55:50.813Z,23.58
2017-07-20T04:56:47.082Z,23.56
2017-07-20T04:57:44.222Z,23.56
2017-07-20T04:58:40.479Z,23.56
2017-07-20T04:59:36.814Z,23.54
2017-07-20T05:00:33.291Z,23.53
2017-07-20T05:01:29.803Z,23.53
2017-07-20T05:02:26.123Z,23.53
2017-07-20T05:03:22.373Z,23.51
2017-07-20T05:04:18.630Z,23.51
2017-07-20T05:05:16.028Z,23.48
2017-07-20T05:06:12.326Z,23.47
2017-07-20T05:07:08.630Z,23.47
2017-07-20T05:08:04.995Z,23.46
2017-07-20T05:09:01.367Z,23.45
2017-07-20T05:09:57.682Z,23.42
2017-07-20T05:10:54.014Z,23.42
2017-07-20T05:11:50.322Z,23.41
2017-07-20T05:12:46.659Z,23.41
2017-07-20T05:13:42.937Z,23.40
2017-07-20T05:14:41.254Z,23.39
2017-07-20T05:15:37.684Z,23.39
2017-07-20T05:16:34.196Z,23.38
2017-07-20T05:17:30.491Z,23.36
2017-07-20T05:18:26.763Z,23.35
2017-07-20T05:19:23.019Z,23.35
2017-07-20T05:20:19.302Z,23.34
2017-07-20T05:21:15.554Z,23.32
2017-07-20T05:22:11.947Z,23.32
2017-07-20T05:23:08.246Z,23.30
2017-07-20T05:24:04.509Z,23.29
2017-07-20T05:25:00.776Z,23.28
2017-07-20T05:25:57.026Z,23.27
2017-07-20T05:26:53.274Z,23.27
2017-07-20T05:27:49.510Z,23.26
2017-07-20T05:28:45.775Z,23.26
2017-07-20T05:29:42.027Z,23.24
2017-07-20T05:30:38.271Z,23.23
2017-07-20T05:31:35.206Z,23.23
2017-07-20T05:32:31.450Z,23.23
2017-07-20T05:33:27.689Z,23.22
2017-07-20T05:34:23.942Z,23.21
2017-07-20T05:35:20.203Z,23.21
2017-07-20T05:36:16.514Z,23.20
2017-07-20T05:37:12.803Z,23.19
2017-07-20T05:38:09.102Z,23.18
2017-07-20T05:39:05.402Z,23.17
2017-07-20T05:40:01.699Z,23.17
2017-07-20T05:40:58.013Z,23.16
2017-07-20T05:41:54.258Z,23.15
2017-07-20T05:42:50.555Z,23.14
2017-07-20T05:43:46.858Z,23.14
2017-07-20T05:44:43.167Z,23.13
2017-07-20T05:45:39.455Z,23.11
2017-07-20T05:46:35.763Z,23.11
2017-07-20T05:47:32.014Z,23.10
2017-07-20T05:48:28.264Z,23.09
2017-07-20T05:49:24.510Z,23.10
2017-07-20T05:50:20.765Z,23.10
2017-07-20T05:51:17.006Z,23.10
2017-07-20T05:52:13.251Z,23.11
2017-07-20T05:53:09.486Z,23.12
2017-07-20T05:54:05.726Z,23.14
2017-07-20T05:55:01.982Z,23.16
2017-07-20T05:55:58.222Z,23.17
2017-07-20T05:56:54.474Z,23.18
2017-07-20T05:57:50.727Z,23.21
2017-07-20T05:58:46.987Z,23.22
2017-07-20T05:59:43.235Z,23.23
2017-07-20T06:00:39.506Z,23.25
2017-07-20T06:01:35.774Z,23.26
2017-07-20T06:02:32.015Z,23.28
2017-07-20T06:03:28.279Z,23.28
2017-07-20T06:04:24.526Z,23.29
2017-07-20T06:05:20.773Z,23.31
2017-07-20T06:06:17.039Z,23.31
2017-07-20T06:07:13.282Z,23.32
2017-07-20T06:08:09.519Z,23.33
2017-07-20T06:09:05.750Z,23.34
2017-07-20T06:10:01.999Z,23.36
2017-07-20T06:10:58.255Z,23.36
2017-07-20T06:11:54.502Z,23.38
2017-07-20T06:12:50.735Z,23.39
2017-07-20T06:13:46.982Z,23.42
2017-07-20T06:14:43.215Z,23.43
2017-07-20T06:15:39.446Z,23.46
2017-07-20T06:16:35.715Z,23.47
2017-07-20T06:17:31.962Z,23.48
2017-07-20T06:18:28.223Z,23.51
2017-07-20T06:19:24.464Z,23.51
2017-07-20T06:20:20.707Z,23.53
2017-07-20T06:21:16.992Z,23.53
2017-07-20T06:22:13.235Z,23.54
2017-07-20T06:23:09.478Z,23.54
2017-07-20T06:24:05.718Z,23.55
2017-07-20T06:25:01.970Z,23.55
2017-07-20T06:25:58.207Z,23.55
2017-07-20T06:26:54.482Z,23.55
2017-07-20T06:27:50.727Z,23.57
2017-07-20T06:28:46.967Z,23.57
2017-07-20T06:29:43.211Z,23.58
2017-07-20T06:30:39.449Z,23.60
2017-07-20T06:31:35.691Z,23.60
2017-07-20T06:32:31.961Z,23.63
2017-07-20T06:33:28.201Z,23.65
2017-07-20T06:34:24.434Z,23.67
2017-07-20T06:35:20.668Z,23.68
2017-07-20T06:36:16.898Z,23.71
2017-07-20T06:37:13.158Z,23.71
2017-07-20T06:38:09.410Z,23.73
2017-07-20T06:39:05.671Z,23.74
2017-07-20T06:40:01.911Z,23.75
2017-07-20T06:40:58.150Z,23.77
2017-07-20T06:41:54.390Z,23.77
2017-07-20T06:42:50.734Z,23.78
2017-07-20T06:43:47.224Z,23.78
2017-07-20T06:44:43.591Z,23.77
2017-07-20T06:45:39.950Z,23.79
2017-07-20T06:46:36.546Z,23.79
2017-07-20T06:47:32.885Z,23.79
2017-07-20T06:48:29.277Z,23.81
2017-07-20T06:49:25.669Z,23.80
2017-07-20T06:50:21.914Z,23.79
2017-07-20T06:51:18.291Z,23.79
2017-07-20T06:52:14.678Z,23.78
2017-07-20T06:53:11.028Z,23.77
2017-07-20T06:54:07.379Z,23.76
2017-07-20T06:55:03.619Z,23.74
2017-07-20T06:55:59.858Z,23.74
2017-07-20T06:56:56.102Z,23.74
2017-07-20T06:57:52.383Z,23.74
2017-07-20T06:58:48.639Z,23.73
2017-07-20T06:59:44.887Z,23.73
2017-07-20T07:00:41.130Z,23.73
2017-07-20T07:01:37.374Z,23.73
2017-07-20T07:02:33.636Z,23.72
2017-07-20T07:03:29.869Z,23.73
2017-07-20T07:04:26.119Z,23.71
2017-07-20T07:05:22.365Z,23.73
2017-07-20T07:06:18.602Z,23.71
2017-07-20T07:07:14.838Z,23.71
2017-07-20T07:08:11.079Z,23.71
2017-07-20T07:09:07.338Z,23.71
2017-07-20T07:10:03.587Z,23.71
2017-07-20T07:10:59.838Z,23.70
2017-07-20T07:11:56.095Z,23.70
2017-07-20T07:12:52.371Z,23.71
2017-07-20T07:13:48.610Z,23.71
2017-07-20T07:14:44.858Z,23.70
2017-07-20T07:15:41.106Z,23.70
2017-07-20T07:16:37.342Z,23.69
2017-07-20T07:17:33.592Z,23.68
2017-07-20T07:18:29.852Z,23.67
2017-07-20T07:19:26.127Z,23.67
2017-07-20T07:20:22.366Z,23.65
2017-07-20T07:21:18.619Z,23.63
2017-07-20T07:22:14.851Z,23.61
2017-07-20T07:23:11.086Z,23.60
2017-07-20T07:24:07.352Z,23.59
2017-07-20T07:25:03.650Z,23.56
2017-07-20T07:25:59.903Z,23.56
2017-07-20T07:26:56.147Z,23.54
2017-07-20T07:27:52.387Z,23.52
2017-07-20T07:28:48.642Z,23.50
2017-07-20T07:29:44.924Z,23.48
2017-07-20T07:30:41.167Z,23.45
2017-07-20T07:31:37.398Z,23.39
2017-07-20T07:32:33.626Z,23.32
2017-07-20T07:33:29.870Z,23.23
2017-07-20T07:34:26.098Z,23.16
2017-07-20T07:35:22.383Z,23.10
2017-07-20T07:36:18.635Z,23.04
2017-07-20T07:37:14.871Z,23.00
2017-07-20T07:38:11.108Z,22.95
2017-07-20T07:39:07.355Z,22.92
2017-07-20T07:40:03.607Z,22.89
2017-07-20T07:40:59.850Z,22.86
2017-07-20T07:41:56.087Z,22.84
2017-07-20T07:42:52.323Z,22.81
2017-07-20T07:43:48.557Z,22.79
2017-07-20T07:44:44.787Z,22.78
2017-07-20T07:45:41.039Z,22.75
2017-07-20T07:46:38.335Z,22.74
2017-07-20T07:47:34.626Z,22.72
2017-07-20T07:48:30.918Z,22.70
2017-07-20T07:49:27.213Z,22.70
2017-07-20T07:50:23.499Z,22.70
2017-07-20T07:51:19.750Z,22.70
2017-07-20T07:52:16.027Z,22.69
2017-07-20T07:53:12.267Z,22.69
2017-07-20T07:54:08.508Z,22.69
2017-07-20T07:55:04.811Z,22.70
2017-07-20T07:56:01.042Z,22.69
2017-07-20T07:56:57.289Z,22.69
2017-07-20T07:57:53.539Z,22.69
2017-07-20T07:58:49.779Z,22.70
2017-07-20T07:59:46.026Z,22.71
2017-07-20T08:00:42.277Z,22.70
2017-07-20T08:01:38.526Z,22.71
2017-07-20T08:02:34.772Z,22.71
2017-07-20T08:03:31.034Z,22.73
2017-07-20T08:04:27.286Z,22.72
2017-07-20T08:05:23.530Z,22.72
2017-07-20T08:06:19.778Z,22.72
2017-07-20T08:07:16.068Z,22.72
2017-07-20T08:08:12.327Z,22.72
2017-07-20T08:09:08.586Z,22.72
2017-07-20T08:10:04.830Z,22.73
2017-07-20T08:11:01.088Z,22.73
2017-07-20T08:11:57.336Z,22.74
2017-07-20T08:12:53.598Z,22.72
2017-07-20T08:13:49.837Z,22.72
2017-07-20T08:14:46.093Z,22.72
2017-07-20T08:15:42.330Z,22.73
2017-07-20T08:16:38.580Z,22.73
2017-07-20T08:17:34.832Z,22.73
2017-07-20T08:18:31.091Z,22.74
2017-07-20T08:19:27.333Z,22.74
2017-07-20T08:20:23.592Z,22.73
2017-07-20T08:21:19.854Z,22.73
2017-07-20T08:22:16.104Z,22.75
2017-07-20T08:23:12.350Z,22.74
2017-07-20T08:24:09.499Z,22.74
2017-07-20T08:25:05.748Z,22.75
2017-07-20T08:26:01.998Z,22.78
2017-07-20T08:26:58.245Z,22.79
2017-07-20T08:27:54.499Z,22.82
2017-07-20T08:28:50.758Z,22.86
2017-07-20T08:29:47.006Z,22.89
2017-07-20T08:30:43.250Z,22.92
2017-07-20T08:31:39.490Z,22.96
2017-07-20T08:32:35.738Z,22.99
2017-07-20T08:33:31.991Z,23.03
2017-07-20T08:34:28.222Z,23.03
2017-07-20T08:35:24.466Z,23.05
2017-07-20T08:36:21.244Z,23.08
2017-07-20T08:37:17.494Z,23.09
2017-07-20T08:38:13.751Z,23.11
2017-07-20T08:39:10.019Z,23.11
2017-07-20T08:40:06.246Z,23.14
2017-07-20T08:41:02.495Z,23.16
2017-07-20T08:41:58.733Z,23.17
2017-07-20T08:42:54.978Z,23.19
2017-07-20T08:43:51.250Z,23.21
2017-07-20T08:44:47.491Z,23.23
2017-07-20T08:45:43.741Z,23.24
2017-07-20T08:46:39.973Z,23.26
2017-07-20T08:47:36.215Z,23.27
2017-07-20T08:48:32.466Z,23.29
2017-07-20T08:49:28.734Z,23.29
2017-07-20T08:50:24.974Z,23.30
2017-07-20T08:51:21.209Z,23.32
2017-07-20T08:52:17.450Z,23.34
2017-07-20T08:53:13.702Z,23.35
2017-07-20T08:54:09.962Z,23.38
2017-07-20T08:55:06.211Z,23.39
2017-07-20T08:56:02.462Z,23.40
2017-07-20T08:56:58.698Z,23.42
2017-07-20T08:57:54.936Z,23.44
2017-07-20T08:58:51.182Z,23.45
2017-07-20T08:59:47.441Z,23.48
2017-07-20T09:00:43.677Z,23.51
2017-07-20T09:01:39.914Z,23.55
2017-07-20T09:02:36.158Z,23.57
2017-07-20T09:03:32.408Z,23.60
2017-07-20T09:04:28.666Z,23.62
2017-07-20T09:05:24.911Z,23.63
2017-07-20T09:06:21.165Z,23.66
2017-07-20T09:07:17.398Z,23.67
2017-07-20T09:08:13.642Z,23.68
2017-07-20T09:09:09.881Z,23.69
2017-07-20T09:10:06.140Z,23.70
2017-07-20T09:11:02.391Z,23.71
2017-07-20T09:11:58.630Z,23.73
2017-07-20T09:12:54.886Z,23.74
2017-07-20T09:13:51.126Z,23.77
2017-07-20T09:14:47.399Z,23.78
2017-07-20T09:15:43.642Z,23.81
2017-07-20T09:16:39.890Z,23.83
2017-07-20T09:17:36.130Z,23.86
2017-07-20T09:18:32.394Z,23.89
2017-07-20T09:19:28.634Z,23.90
2017-07-20T09:20:24.901Z,23.93
2017-07-20T09:21:21.150Z,23.94
2017-07-20T09:22:17.394Z,23.96
2017-07-20T09:23:13.634Z,23.99
2017-07-20T09:24:09.891Z,24.00
2017-07-20T09:25:06.150Z,24.04
2017-07-20T09:26:02.394Z,24.06
2017-07-20T09:26:58.642Z,24.09
2017-07-20T09:27:54.890Z,24.13
2017-07-20T09:28:51.130Z,24.17
2017-07-20T09:29:47.370Z,24.22
2017-07-20T09:30:43.642Z,24.26
2017-07-20T09:31:39.883Z,24.29
2017-07-20T09:32:36.127Z,24.32
2017-07-20T09:33:32.374Z,24.35
2017-07-20T09:34:28.620Z,24.37
2017-07-20T09:35:24.859Z,24.39
2017-07-20T09:36:21.122Z,24.39
2017-07-20T09:37:17.370Z,24.42
2017-07-20T09:38:13.628Z,24.43
2017-07-20T09:39:09.871Z,24.47
2017-07-20T09:40:06.126Z,24.49
2017-07-20T09:41:02.367Z,24.51
2017-07-20T09:41:58.622Z,24.53
2017-07-20T09:42:54.862Z,24.56
2017-07-20T09:43:51.103Z,24.58
2017-07-20T09:44:47.386Z,24.61
2017-07-20T09:45:43.676Z,24.65
2017-07-20T09:46:39.938Z,24.68
2017-07-20T09:47:36.227Z,24.71
2017-07-20T09:48:32.487Z,24.73
2017-07-20T09:49:28.742Z,24.76
2017-07-20T09:50:24.986Z,24.78
2017-07-20T09:51:21.230Z,24.78
2017-07-20T09:52:17.482Z,24.81
2017-07-20T09:53:13.729Z,24.83
2017-07-20T09:54:09.975Z,24.84
2017-07-20T09:55:06.234Z,24.87
2017-07-20T09:56:02.482Z,24.89
2017-07-20T09:56:58.763Z,24.88
2017-07-20T09:57:55.020Z,24.90
2017-07-20T09:58:51.274Z,24.93
2017-07-20T09:59:47.514Z,24.93
2017-07-20T10:00:43.758Z,24.94
2017-07-20T10:01:40.017Z,24.95
2017-07-20T10:02:36.291Z,24.96
2017-07-20T10:03:32.533Z,24.98
2017-07-20T10:04:28.782Z,24.98
2017-07-20T10:05:25.090Z,24.98
2017-07-20T10:06:21.326Z,24.98
2017-07-20T10:07:17.587Z,24.98
2017-07-20T10:08:13.834Z,24.97
2017-07-20T10:09:10.083Z,24.97
2017-07-20T10:10:06.323Z,24.97
2017-07-20T10:11:02.580Z,24.96
2017-07-20T10:11:58.828Z,24.96
2017-07-20T10:12:55.107Z,24.94
2017-07-20T10:13:51.351Z,24.94
2017-07-20T10:14:47.594Z,24.95
2017-07-20T10:15:43.830Z,24.95
2017-07-20T10:16:40.075Z,24.95
2017-07-20T10:17:36.318Z,24.97
2017-07-20T10:18:32.590Z,24.95
2017-07-20T10:19:28.834Z,24.96
2017-07-20T10:20:26.915Z,24.96
2017-07-20T10:21:23.166Z,24.94
2017-07-20T10:22:19.410Z,24.94
2017-07-20T10:23:15.682Z,24.93
2017-07-20T10:24:11.923Z,24.93
2017-07-20T10:25:08.308Z,24.94
2017-07-20T10:26:04.575Z,24.94
2017-07-20T10:27:00.817Z,24.94
2017-07-20T10:27:57.113Z,24.95
2017-07-20T10:28:53.365Z,24.95
2017-07-20T10:29:49.606Z,24.96
2017-07-20T10:30:45.850Z,24.96
2017-07-20T10:31:42.097Z,24.96
2017-07-20T10:32:38.338Z,24.97
2017-07-20T10:33:34.639Z,24.98
2017-07-20T10:34:30.909Z,24.99
2017-07-20T10:35:27.142Z,24.98
2017-07-20T10:36:23.388Z,24.99
2017-07-20T10:37:19.634Z,24.99
2017-07-20T10:38:15.886Z,24.99
2017-07-20T10:39:12.150Z,25.00
2017-07-20T10:40:08.390Z,25.01
2017-07-20T10:41:04.639Z,25.02
2017-07-20T10:42:00.890Z,25.03
2017-07-20T10:42:57.478Z,25.04
2017-07-20T10:43:53.734Z,25.05
2017-07-20T10:44:50.002Z,25.05
2017-07-20T10:45:46.259Z,25.03
2017-07-20T10:46:42.502Z,25.02
2017-07-20T10:47:38.734Z,25.00
2017-07-20T10:48:35.002Z,24.97
2017-07-20T10:49:31.238Z,24.95
2017-07-20T10:50:27.470Z,24.93
2017-07-20T10:51:23.729Z,24.91
2017-07-20T10:52:19.970Z,24.90
2017-07-20T10:53:16.201Z,24.90
2017-07-20T10:54:12.462Z,24.89
2017-07-20T10:55:09.658Z,24.88
2017-07-20T10:56:06.766Z,24.88
2017-07-20T10:57:03.023Z,24.86
2017-07-20T10:57:59.316Z,24.86
2017-07-20T10:58:55.582Z,24.84
2017-07-20T10:59:51.818Z,24.83
2017-07-20T11:00:48.058Z,24.83
2017-07-20T11:01:44.299Z,24.83
2017-07-20T11:02:40.595Z,24.84
2017-07-20T11:03:36.847Z,24.85
2017-07-20T11:04:33.110Z,24.86
2017-07-20T11:05:29.349Z,24.87
2017-07-20T11:06:25.599Z,24.89
2017-07-20T11:07:21.871Z,24.90
2017-07-20T11:08:18.109Z,24.89
2017-07-20T11:09:14.394Z,24.88
2017-07-20T11:10:10.644Z,24.87
2017-07-20T11:11:06.966Z,24.85
2017-07-20T11:12:03.243Z,24.83
2017-07-20T11:12:59.490Z,24.82
2017-07-20T11:13:55.730Z,24.78
2017-07-20T11:14:52.003Z,24.75
2017-07-20T11:15:48.246Z,24.74
2017-07-20T11:16:44.490Z,24.73
2017-07-20T11:17:40.726Z,24.72
2017-07-20T11:18:36.990Z,24.73
2017-07-20T11:19:33.246Z,24.72
2017-07-20T11:20:29.505Z,24.71
2017-07-20T11:21:25.731Z,24.71
2017-07-20T11:22:22.927Z,24.72
2017-07-20T11:23:19.179Z,24.72
2017-07-20T11:24:15.422Z,24.72
2017-07-20T11:25:11.667Z,24.71
2017-07-20T11:26:07.916Z,24.70
2017-07-20T11:27:04.159Z,24.71
2017-07-20T11:28:00.438Z,24.71
2017-07-20T11:28:56.678Z,24.72
2017-07-20T11:29:52.918Z,24.74
2017-07-20T11:30:49.172Z,24.73
2017-07-20T11:31:45.454Z,24.74
2017-07-20T11:32:41.710Z,24.75
2017-07-20T11:33:37.958Z,24.76
2017-07-20T11:34:34.190Z,24.75
2017-07-20T11:35:30.450Z,24.76
2017-07-20T11:36:26.685Z,24.74
2017-07-20T11:37:22.945Z,24.72
2017-07-20T11:38:19.194Z,24.69
2017-07-20T11:39:15.444Z,24.67
2017-07-20T11:40:11.691Z,24.66
2017-07-20T11:41:07.966Z,24.64
2017-07-20T11:42:04.198Z,24.61
2017-07-20T11:43:00.434Z,24.59
2017-07-20T11:43:56.658Z,24.57
2017-07-20T11:44:52.899Z,24.54
2017-07-20T11:45:49.142Z,24.53
2017-07-20T11:46:45.390Z,24.51
2017-07-20T11:47:41.639Z,24.49
2017-07-20T11:48:37.882Z,24.48
2017-07-20T11:49:34.129Z,24.46
2017-07-20T11:50:30.596Z,24.44
2017-07-20T11:51:26.875Z,24.41
2017-07-20T11:52:23.109Z,24.38
2017-07-20T11:53:19.354Z,24.34
2017-07-20T11:54:15.600Z,24.31
2017-07-20T11:55:11.856Z,24.27
2017-07-20T11:56:08.089Z,24.25
2017-07-20T11:57:04.356Z,24.22
2017-07-20T11:58:00.632Z,24.18
2017-07-20T11:58:56.886Z,24.15
2017-07-20T11:59:53.177Z,24.10
2017-07-20T12:00:49.411Z,24.09
2017-07-20T12:01:45.688Z,24.06
2017-07-20T12:02:41.920Z,24.04
2017-07-20T12:03:38.186Z,24.02
2017-07-20T12:04:34.426Z,23.99
2017-07-20T12:05:30.674Z,23.97